Time;durP1;ratioP1;P1;durP2;ratioP2;P2;SDS_P1;SDS_P2;PMS_P1;PMS_P2;Temp;Humidity;BMP_temperature;BMP_pressure;BME280_temperature;BME280_humidity;BME280_pressure;Samples;Min_cycle;Max_cycle;Signal;HPM_P1;HPM_P2
2022/07/01 00:00:31;;;;;;;;;0.50;0.50;;;;;18.08;58.97;101390.22;4987784;28;46307;-50
2022/07/01 00:02:57;;;;;;;;;1.00;1.00;;;;;18.05;59.19;101385.97;4999978;28;45572;-50
2022/07/01 00:05:23;;;;;;;;;1.00;1.00;;;;;18.03;59.22;101389.75;4993907;28;45762;-53
2022/07/01 00:07:48;;;;;;;;;3.00;1.75;;;;;17.98;59.15;101390.09;4992088;28;45602;-52
2022/07/01 00:10:14;;;;;;;;;3.00;2.00;;;;;17.95;59.27;101387.69;4987542;28;45668;-52
2022/07/01 00:12:40;;;;;;;;;2.00;0.00;;;;;17.95;59.25;101389.53;4993397;28;45589;-52
2022/07/01 00:15:06;;;;;;;;;2.00;1.75;;;;;17.92;59.30;101385.25;4990214;28;45516;-53
2022/07/01 00:17:31;;;;;;;;;1.00;1.00;;;;;17.92;59.47;101382.59;4989321;28;45594;-53
2022/07/01 00:19:57;;;;;;;;;4.00;1.00;;;;;17.92;59.63;101385.25;4987417;28;45633;-51
2022/07/01 00:22:22;;;;;;;;;2.00;1.50;;;;;17.94;59.76;101390.50;4973608;28;45444;-52
2022/07/01 00:24:48;;;;;;;;;1.00;1.00;;;;;17.92;59.69;101405.75;4991123;28;45440;-55
2022/07/01 00:27:15;;;;;;;;;1.00;1.00;;;;;17.84;59.84;101399.19;4989185;28;45538;-51
2022/07/01 00:29:40;;;;;;;;;1.25;0.00;;;;;17.83;59.90;101407.31;4989170;28;45992;-53
2022/07/01 00:32:07;;;;;;;;;1.00;1.00;;;;;17.78;60.06;101402.38;4991688;28;45571;-53
2022/07/01 00:34:32;;;;;;;;;2.00;0.75;;;;;17.75;60.06;101404.41;4988415;28;45543;-50
2022/07/01 00:36:59;;;;;;;;;1.00;1.00;;;;;17.72;60.31;101410.00;4993261;28;45763;-51
2022/07/01 00:39:24;;;;;;;;;1.00;1.00;;;;;17.70;60.26;101418.13;4986505;28;46115;-52
2022/07/01 00:41:50;;;;;;;;;1.00;0.25;;;;;17.69;60.35;101415.50;4992294;28;45533;-52
2022/07/01 00:44:19;;;;;;;;;1.00;1.00;;;;;17.69;60.63;101413.69;4988923;28;45548;-52
2022/07/01 00:46:47;;;;;;;;;1.00;1.00;;;;;17.70;60.61;101415.44;4988390;28;45496;-51
2022/07/01 00:49:12;;;;;;;;;1.75;1.00;;;;;17.68;60.75;101411.16;4990513;28;45552;-55
2022/07/01 00:51:38;;;;;;;;;0.00;0.00;;;;;17.67;60.71;101406.81;4992921;28;45500;-52
2022/07/01 00:54:04;;;;;;;;;1.00;1.00;;;;;17.68;60.65;101420.00;4987028;28;45447;-53
2022/07/01 00:56:30;;;;;;;;;2.00;0.25;;;;;17.67;60.66;101420.97;4989555;28;45456;-54
2022/07/01 00:58:55;;;;;;;;;1.00;1.00;;;;;17.69;60.72;101418.19;4987789;28;45684;-54
2022/07/01 01:01:22;;;;;;;;;1.00;1.00;;;;;17.67;60.75;101417.47;4989858;28;45475;-53
2022/07/01 01:03:48;;;;;;;;;2.00;0.75;;;;;17.67;60.91;101417.47;4990110;28;45394;-55
2022/07/01 01:06:15;;;;;;;;;1.00;1.00;;;;;17.68;60.94;101419.16;4991624;28;45568;-53
2022/07/01 01:08:41;;;;;;;;;1.25;1.00;;;;;17.66;60.73;101426.41;4988412;28;45405;-52
2022/07/01 01:11:07;;;;;;;;;0.25;0.25;;;;;17.65;60.65;101428.25;4989459;28;45412;-53
2022/07/01 01:13:33;;;;;;;;;0.25;0.25;;;;;17.65;60.96;101428.25;4991523;28;45374;-53
2022/07/01 01:15:58;;;;;;;;;1.00;1.00;;;;;17.63;60.91;101438.19;4987671;28;45429;-54
2022/07/01 01:18:24;;;;;;;;;1.00;1.00;;;;;17.62;60.76;101436.47;4990915;28;46380;-55
2022/07/01 01:20:49;;;;;;;;;1.00;1.00;;;;;17.57;60.94;101431.50;4986286;28;45618;-53
2022/07/01 01:23:15;;;;;;;;;1.25;0.75;;;;;17.57;60.69;101433.31;4982805;28;45887;-53
2022/07/01 01:25:40;;;;;;;;;2.00;1.00;;;;;17.55;60.98;101435.25;4969968;28;45570;-53
2022/07/01 01:28:06;;;;;;;;;0.50;0.50;;;;;17.57;61.09;101438.66;4983525;28;46043;-52
2022/07/01 01:30:31;;;;;;;;;1.00;1.00;;;;;17.57;61.07;101435.97;4985998;28;45581;-54
2022/07/01 01:32:57;;;;;;;;;3.00;1.75;;;;;17.57;60.98;101446.63;4985161;28;45833;-54
2022/07/01 01:35:23;;;;;;;;;1.00;1.00;;;;;17.57;61.16;101446.63;4984692;28;45509;-54
2022/07/01 01:37:49;;;;;;;;;1.00;1.00;;;;;17.56;61.14;101450.28;4985906;28;45605;-53
2022/07/01 01:40:15;;;;;;;;;1.00;1.00;;;;;17.55;60.97;101446.75;4985947;28;45425;-50
2022/07/01 01:42:42;;;;;;;;;1.00;1.00;;;;;17.53;61.14;101446.00;4982516;28;45467;-51
2022/07/01 01:45:08;;;;;;;;;2.00;1.00;;;;;17.49;61.22;101454.38;4986614;28;45507;-52
2022/07/01 01:47:34;;;;;;;;;1.00;1.00;;;;;17.46;61.27;101452.81;4983903;28;46142;-53
2022/07/01 01:49:59;;;;;;;;;1.25;1.25;;;;;17.46;61.25;101454.63;4984659;28;45612;-54
2022/07/01 01:52:24;;;;;;;;;1.00;1.00;;;;;17.46;61.42;101454.63;4985498;28;45461;-51
2022/07/01 01:54:50;;;;;;;;;1.00;1.00;;;;;17.43;61.39;101461.00;4987018;28;45377;-51
2022/07/01 01:57:16;;;;;;;;;1.25;1.00;;;;;17.43;61.48;101455.69;4985960;28;45741;-53
2022/07/01 01:59:41;;;;;;;;;1.00;1.00;;;;;17.44;61.65;101465.38;4992173;28;45640;-51
2022/07/01 02:02:07;;;;;;;;;1.50;1.50;;;;;17.44;61.58;101462.72;4986886;28;45512;-52
2022/07/01 02:04:33;;;;;;;;;1.00;1.00;;;;;17.44;61.60;101467.19;4989397;28;45696;-52
2022/07/01 02:06:59;;;;;;;;;2.50;1.00;;;;;17.45;61.72;101466.22;4987803;28;46402;-53
2022/07/01 02:09:25;;;;;;;;;1.00;1.00;;;;;17.42;61.63;101461.97;4987775;28;45922;-54
2022/07/01 02:11:50;;;;;;;;;2.00;1.00;;;;;17.44;61.63;101467.19;4989015;28;45704;-51
2022/07/01 02:14:16;;;;;;;;;1.50;1.25;;;;;17.41;61.84;101464.78;4990000;28;45394;-53
2022/07/01 02:16:41;;;;;;;;;1.00;1.00;;;;;17.40;61.92;101465.75;4985129;28;45391;-54
2022/07/01 02:19:06;;;;;;;;;1.00;1.00;;;;;17.39;61.90;101472.88;4992395;28;45525;-55
2022/07/01 02:21:32;;;;;;;;;0.50;0.50;;;;;17.36;62.07;101469.59;4990489;28;45369;-54
2022/07/01 02:23:57;;;;;;;;;1.00;1.00;;;;;17.34;62.29;101469.72;4995761;28;45639;-53
2022/07/01 02:26:23;;;;;;;;;1.25;1.25;;;;;17.33;62.04;101467.16;4987369;28;45397;-52
2022/07/01 02:28:48;;;;;;;;;3.00;2.00;;;;;17.32;62.26;101476.97;4994418;28;45436;-52
2022/07/01 02:31:14;;;;;;;;;1.00;1.00;;;;;17.32;62.27;101478.78;4990810;28;45344;-53
2022/07/01 02:33:39;;;;;;;;;2.25;1.00;;;;;17.30;62.16;101478.91;4993194;28;45404;-52
2022/07/01 02:36:05;;;;;;;;;2.00;2.00;;;;;17.25;62.24;101489.91;4991427;28;46350;-52
2022/07/01 02:38:30;;;;;;;;;3.00;2.00;;;;;17.22;62.40;101483.94;4990299;28;46511;-52
2022/07/01 02:40:56;;;;;;;;;1.00;1.00;;;;;17.25;62.50;101483.72;4991380;28;45642;-51
2022/07/01 02:43:21;;;;;;;;;4.00;2.25;;;;;17.25;62.46;101489.91;4993112;28;45420;-54
2022/07/01 02:45:47;;;;;;;;;0.00;0.00;;;;;17.24;62.60;101490.03;4992529;28;45525;-54
2022/07/01 02:48:12;;;;;;;;;2.00;1.00;;;;;17.23;62.47;101496.31;4991290;28;45505;-53
2022/07/01 02:50:38;;;;;;;;;3.00;3.00;;;;;17.20;62.86;101489.38;4990768;28;45503;-54
2022/07/01 02:53:03;;;;;;;;;3.25;3.25;;;;;17.18;62.95;101491.31;4993429;28;45465;-53
2022/07/01 02:55:29;;;;;;;;;3.25;3.00;;;;;17.14;63.00;101495.19;4989782;28;46104;-52
2022/07/01 02:57:55;;;;;;;;;4.00;2.75;;;;;17.11;62.98;101495.41;4995287;28;45467;-53
2022/07/01 03:00:22;;;;;;;;;4.00;3.00;;;;;17.09;63.06;101500.00;4991647;28;45510;-52
2022/07/01 03:02:47;;;;;;;;;5.00;3.75;;;;;17.09;63.01;101489.34;4991607;28;45478;-51
2022/07/01 03:05:13;;;;;;;;;5.00;3.00;;;;;17.07;63.36;101488.63;4990197;28;45920;-55
2022/07/01 03:07:39;;;;;;;;;2.50;2.50;;;;;17.05;63.26;101501.19;4991201;28;45473;-54
2022/07/01 03:10:06;;;;;;;;;4.00;4.00;;;;;17.00;63.36;101498.88;4992243;28;45495;-53
2022/07/01 03:12:35;;;;;;;;;4.00;3.00;;;;;17.01;63.43;101500.56;4989974;28;45435;-55
2022/07/01 03:15:05;;;;;;;;;4.25;2.75;;;;;17.02;63.59;101494.28;4990358;28;45929;-55
2022/07/01 03:17:32;;;;;;;;;1.75;1.75;;;;;17.01;63.50;101492.59;4989044;28;45539;-55
2022/07/01 03:19:58;;;;;;;;;3.00;3.00;;;;;17.00;63.49;101495.38;4986640;28;45518;-55
2022/07/01 03:22:27;;;;;;;;;5.50;3.50;;;;;17.00;63.57;101495.38;4991677;28;45492;-54
2022/07/01 03:24:52;;;;;;;;;3.00;3.00;;;;;17.00;63.57;101490.88;4986134;28;45324;-53
2022/07/01 03:27:19;;;;;;;;;3.25;3.00;;;;;17.00;63.77;101490.88;4986098;28;45432;-50
2022/07/01 03:29:45;;;;;;;;;5.00;3.00;;;;;16.95;63.62;101503.69;4987392;28;45432;-50
2022/07/01 03:32:11;;;;;;;;;4.00;3.00;;;;;16.92;63.36;101503.91;4988071;28;45516;-53
2022/07/01 03:34:42;;;;;;;;;5.25;3.50;;;;;16.92;63.84;101505.72;4987737;28;46252;-50
2022/07/01 03:37:09;;;;;;;;;2.25;2.25;;;;;16.91;63.80;101510.22;4989247;28;45464;-51
2022/07/01 03:39:36;;;;;;;;;3.00;3.00;;;;;16.91;63.83;101520.84;4990901;28;45385;-52
2022/07/01 03:42:03;;;;;;;;;3.00;3.00;;;;;16.91;63.82;101522.66;4992924;28;46515;-50
2022/07/01 03:44:28;;;;;;;;;4.00;3.50;;;;;16.92;64.09;101522.53;4989155;28;47900;-49
2022/07/01 03:46:55;;;;;;;;;2.50;2.00;;;;;16.92;63.77;101522.53;4991971;28;45536;-53
2022/07/01 03:49:21;;;;;;;;;3.00;2.75;;;;;16.92;63.64;101524.34;4992659;28;45758;-50
2022/07/01 03:51:46;;;;;;;;;4.75;3.00;;;;;16.91;63.77;101526.19;4989234;28;45413;-52
2022/07/01 03:54:32;;;;;;;;;5.25;3.00;;;;;16.91;63.89;101528.00;4989941;28;46171;-51
2022/07/01 03:56:59;;;;;;;;;1.75;1.75;;;;;16.89;63.77;101532.53;4992926;28;45509;-51
2022/07/01 03:59:26;;;;;;;;;1.00;1.00;;;;;16.85;63.75;101536.41;4973236;28;45559;-54
2022/07/01 04:01:53;;;;;;;;;4.25;2.25;;;;;16.81;63.46;101530.44;4989995;28;45502;-54
2022/07/01 04:04:18;;;;;;;;;2.50;2.50;;;;;16.74;63.54;101530.03;4992215;28;45482;-54
2022/07/01 04:06:45;;;;;;;;;2.00;2.00;;;;;16.73;63.70;101531.00;4988732;28;45664;-50
2022/07/01 04:09:12;;;;;;;;;3.25;3.00;;;;;16.70;63.48;101535.72;4991804;28;45425;-55
2022/07/01 04:11:38;;;;;;;;;1.00;1.00;;;;;16.67;63.47;101538.56;4990896;28;45436;-54
2022/07/01 04:14:04;;;;;;;;;1.75;1.75;;;;;16.66;63.60;101542.16;4990951;28;45544;-53
2022/07/01 04:16:30;;;;;;;;;3.25;1.50;;;;;16.63;63.40;101543.25;4989039;28;45468;-55
2022/07/01 04:18:56;;;;;;;;;2.25;1.50;;;;;16.60;63.46;101546.13;4989309;28;45425;-54
2022/07/01 04:24:06;;;;;;;;;4.00;2.00;;;;;16.57;63.60;101549.00;4991199;28;45614;-55
2022/07/01 04:26:32;;;;;;;;;4.00;3.00;;;;;16.56;63.40;101546.44;4988088;28;46480;-51
2022/07/01 04:28:58;;;;;;;;;2.00;1.50;;;;;16.51;63.58;101548.56;4989120;28;45567;-50
2022/07/01 04:31:24;;;;;;;;;3.00;2.00;;;;;16.50;63.44;101550.38;4988112;28;45846;-52
2022/07/01 04:33:50;;;;;;;;;3.75;2.25;;;;;16.52;63.65;101545.84;4991215;28;46102;-53
2022/07/01 04:36:16;;;;;;;;;2.00;1.00;;;;;16.51;63.59;101554.78;4981324;28;45509;-53
2022/07/01 04:38:41;;;;;;;;;3.00;1.00;;;;;16.48;63.57;101554.97;4988677;28;45416;-51
2022/07/01 04:43:51;;;;;;;;;2.25;1.25;;;;;16.51;63.60;101557.44;4987768;28;45456;-50
2022/07/01 04:46:16;;;;;;;;;2.00;2.00;;;;;16.52;63.66;101564.44;4989020;28;45486;-52
2022/07/01 04:48:42;;;;;;;;;4.00;2.00;;;;;16.55;63.59;101558.06;4990454;28;45536;-54
2022/07/01 04:51:07;;;;;;;;;0.00;0.00;;;;;16.56;63.67;101571.25;4991195;28;45411;-50
2022/07/01 04:53:33;;;;;;;;;3.00;2.00;;;;;16.56;63.48;101570.38;4989609;28;46160;-54
2022/07/01 04:55:58;;;;;;;;;2.00;2.00;;;;;16.55;63.52;101571.34;4989862;28;45695;-50
2022/07/01 04:58:25;;;;;;;;;2.00;2.00;;;;;16.54;63.61;101575.81;4987771;28;45457;-51
2022/07/01 05:00:51;;;;;;;;;4.00;3.00;;;;;16.55;63.46;101577.53;4992425;28;45515;-53
2022/07/01 05:03:17;;;;;;;;;2.50;2.25;;;;;16.53;63.32;101579.44;4988383;28;45644;-53
2022/07/01 05:05:42;;;;;;;;;2.25;2.00;;;;;16.53;63.45;101589.25;4989755;28;45738;-51
2022/07/01 05:08:08;;;;;;;;;2.00;2.00;;;;;16.51;63.43;101585.81;4987355;28;45571;-51
2022/07/01 05:10:35;;;;;;;;;2.50;2.00;;;;;16.51;63.76;101591.13;4988763;28;45463;-55
2022/07/01 05:13:00;;;;;;;;;3.25;3.25;;;;;16.50;63.52;101587.63;4990175;28;46007;-51
2022/07/01 05:15:26;;;;;;;;;5.00;3.00;;;;;16.47;63.43;101590.50;4990875;28;45321;-50
2022/07/01 05:23:19;;;;;;;;;4.00;4.00;;;;;16.40;63.44;101584.78;4986909;28;45489;-53
2022/07/01 05:25:45;;;;;;;;;1.75;1.75;;;;;16.40;63.45;101589.25;4985841;28;45427;-53
2022/07/01 05:28:10;;;;;;;;;4.25;4.25;;;;;16.43;63.52;101584.56;4988503;28;45476;-51
2022/07/01 05:30:36;;;;;;;;;3.75;3.75;;;;;16.49;63.47;101585.94;4986813;28;45442;-54
2022/07/01 05:33:01;;;;;;;;;3.75;2.75;;;;;16.54;63.64;101580.28;4998854;28;46056;-54
2022/07/01 05:35:27;;;;;;;;;7.25;5.75;;;;;16.58;63.46;101585.28;4996672;28;45559;-53
2022/07/01 05:37:52;;;;;;;;;6.50;6.00;;;;;16.67;63.44;101586.47;4980861;28;45303;-54
2022/07/01 05:40:18;;;;;;;;;6.00;4.25;;;;;16.72;63.34;101584.31;4980450;28;45736;-54
2022/07/01 05:42:43;;;;;;;;;6.00;5.00;;;;;16.79;63.36;101587.41;4989828;28;45983;-54
2022/07/01 05:45:09;;;;;;;;;6.50;5.25;;;;;16.87;63.34;101590.38;4991457;28;45365;-53
2022/07/01 05:47:34;;;;;;;;;5.75;4.00;;;;;16.96;63.24;101589.69;4989056;28;45541;-55
2022/07/01 05:50:00;;;;;;;;;6.00;3.25;;;;;16.99;62.96;101592.16;4970502;28;45818;-51
2022/07/01 05:52:25;;;;;;;;;4.00;4.00;;;;;17.00;62.90;101596.50;4986968;28;45694;-55
2022/07/01 05:54:51;;;;;;;;;5.00;3.00;;;;;17.04;62.86;101592.66;4989777;28;45439;-54
2022/07/01 05:57:16;;;;;;;;;2.00;2.00;;;;;17.11;62.84;101587.72;4989282;28;45551;-50
2022/07/01 05:59:42;;;;;;;;;5.25;4.00;;;;;17.16;62.47;101594.44;4987507;28;45365;-53
2022/07/01 06:02:07;;;;;;;;;6.00;3.25;;;;;17.22;62.50;101598.44;4969111;28;45728;-53
2022/07/01 06:04:33;;;;;;;;;4.25;3.25;;;;;17.28;62.41;101601.50;4980762;28;45466;-50
2022/07/01 06:06:59;;;;;;;;;4.25;3.00;;;;;17.35;62.21;101601.91;4980794;28;45239;-49
2022/07/01 06:09:25;;;;;;;;;3.00;3.00;;;;;17.40;62.13;101605.09;4980474;28;45442;-53
2022/07/01 06:11:50;;;;;;;;;5.50;4.25;;;;;17.45;61.91;101600.25;4980193;28;45393;-46
2022/07/01 06:14:16;;;;;;;;;4.75;3.25;;;;;17.46;61.95;101604.63;4979357;28;45387;-48
2022/07/01 06:16:41;;;;;;;;;4.00;3.00;;;;;17.49;61.67;101598.22;4980220;28;45532;-51
2022/07/01 06:19:07;;;;;;;;;8.25;4.25;;;;;17.57;61.80;101610.00;4991088;28;45299;-53
2022/07/01 06:21:32;;;;;;;;;4.75;3.00;;;;;17.65;61.50;101609.44;5000194;28;45613;-55
2022/07/01 06:23:58;;;;;;;;;3.00;2.00;;;;;17.71;60.92;101617.00;4998971;28;45356;-52
2022/07/01 06:26:24;;;;;;;;;3.50;2.50;;;;;17.76;61.12;101614.81;4985073;28;45342;-52
2022/07/01 06:28:49;;;;;;;;;3.50;3.00;;;;;17.80;60.99;101613.63;4980729;28;45263;-52
2022/07/01 06:31:15;;;;;;;;;6.00;2.00;;;;;17.76;60.52;101611.31;4980177;28;46145;-54
2022/07/01 06:33:40;;;;;;;;;4.75;3.00;;;;;17.80;60.44;101613.63;4979551;28;45368;-53
2022/07/01 06:36:06;;;;;;;;;4.50;3.00;;;;;17.87;60.41;101614.03;4979184;28;45433;-54
2022/07/01 06:38:31;;;;;;;;;3.00;1.50;;;;;17.87;60.19;101622.03;4979478;28;45337;-54
2022/07/01 06:43:43;;;;;;;;;3.25;1.00;;;;;18.00;60.06;101628.09;4983410;28;45390;-52
2022/07/01 06:46:09;;;;;;;;;1.50;1.50;;;;;18.02;59.47;101626.19;4983335;28;45489;-54
2022/07/01 06:48:35;;;;;;;;;1.25;1.00;;;;;18.05;59.38;101633.94;4983683;28;45346;-54
2022/07/01 06:51:01;;;;;;;;;1.00;1.00;;;;;18.01;59.08;101624.50;4983201;28;45295;-53
2022/07/01 06:53:27;;;;;;;;;5.50;1.75;;;;;18.01;58.94;101628.94;4983603;28;45304;-54
2022/07/01 06:55:53;;;;;;;;;1.50;1.00;;;;;18.02;59.26;101628.00;4983585;28;45229;-54
2022/07/01 06:58:18;;;;;;;;;6.75;1.25;;;;;18.09;58.86;101630.09;4983538;28;45231;-55
2022/07/01 07:00:44;;;;;;;;;3.25;1.75;;;;;18.09;58.71;101635.41;4983325;28;46257;-55
2022/07/01 07:03:09;;;;;;;;;1.00;1.00;;;;;18.13;58.93;101636.00;4983572;28;45375;-55
2022/07/01 07:05:34;;;;;;;;;6.00;3.00;;;;;18.19;59.03;101634.72;4983363;28;45258;-54
2022/07/01 07:08:00;;;;;;;;;3.50;3.00;;;;;18.24;58.62;101636.03;4983804;28;45340;-54
2022/07/01 07:10:25;;;;;;;;;1.75;1.00;;;;;18.30;58.71;101632.03;4983486;28;46305;-55
2022/07/01 07:12:51;;;;;;;;;2.25;0.75;;;;;18.33;58.20;101634.50;4983511;28;45409;-55
2022/07/01 07:15:17;;;;;;;;;2.00;2.00;;;;;18.37;58.19;101635.94;4983019;28;45234;-54
2022/07/01 07:17:42;;;;;;;;;4.25;1.00;;;;;18.39;58.11;101637.50;4982147;28;45496;-56
2022/07/01 07:20:08;;;;;;;;;7.25;5.25;;;;;18.42;57.96;101634.63;5002663;28;45413;-54
2022/07/01 07:22:34;;;;;;;;;1.50;1.00;;;;;18.49;57.62;101637.66;5002961;28;45186;-53
2022/07/01 07:25:00;;;;;;;;;2.25;1.75;;;;;18.51;57.43;101640.22;4999008;28;45468;-53
2022/07/01 07:27:25;;;;;;;;;1.00;1.00;;;;;18.49;57.28;101632.31;4983050;28;45236;-54
2022/07/01 07:29:51;;;;;;;;;9.75;6.25;;;;;18.45;57.22;101635.34;4982395;28;45317;-54
2022/07/01 07:32:16;;;;;;;;;5.00;3.75;;;;;18.39;56.86;101626.00;4982679;28;45278;-54
2022/07/01 07:34:42;;;;;;;;;2.25;0.00;;;;;18.39;57.00;101629.50;4983062;28;45265;-53
2022/07/01 07:37:07;;;;;;;;;2.00;2.00;;;;;18.37;56.24;101633.28;4982925;28;45430;-55
2022/07/01 07:39:33;;;;;;;;;1.00;1.00;;;;;18.40;56.79;101630.34;4982952;28;46642;-56
2022/07/01 07:41:59;;;;;;;;;3.00;2.00;;;;;18.41;56.52;101624.91;4982940;28;45281;-56
2022/07/01 07:44:25;;;;;;;;;1.25;1.00;;;;;18.42;56.41;101633.78;4982894;28;45324;-54
2022/07/01 07:46:50;;;;;;;;;3.75;1.75;;;;;18.46;56.27;101626.38;4982777;28;45377;-55
2022/07/01 07:49:16;;;;;;;;;2.50;0.00;;;;;18.51;55.81;101629.53;4982796;28;45254;-55
2022/07/01 07:51:42;;;;;;;;;0.00;0.00;;;;;18.54;55.81;101631.94;4982819;28;45437;-56
2022/07/01 07:54:07;;;;;;;;;1.25;0.00;;;;;18.54;55.64;101632.78;4982132;28;45384;-53
2022/07/01 07:56:33;;;;;;;;;1.50;0.50;;;;;18.54;55.54;101629.28;4982423;28;45262;-55
2022/07/01 07:58:58;;;;;;;;;0.25;0.00;;;;;18.58;55.20;101631.59;4982963;28;45703;-57
2022/07/01 08:01:24;;;;;;;;;0.25;0.25;;;;;18.59;55.40;101627.13;4982699;28;45263;-55
2022/07/01 08:03:50;;;;;;;;;4.00;0.00;;;;;18.61;54.83;101631.34;4982434;28;45259;-56
2022/07/01 08:06:15;;;;;;;;;0.50;0.00;;;;;18.67;55.06;101632.72;4982958;28;45504;-55
2022/07/01 08:08:41;;;;;;;;;1.75;0.00;;;;;18.72;54.67;101633.19;4982517;28;45245;-55
2022/07/01 08:11:06;;;;;;;;;0.00;0.00;;;;;18.73;54.85;101628.72;4982846;28;45251;-56
2022/07/01 08:13:32;;;;;;;;;0.50;0.00;;;;;18.76;54.39;101634.66;4982698;28;45322;-54
2022/07/01 08:15:57;;;;;;;;;2.50;0.25;;;;;18.80;54.38;101638.81;4982464;28;45469;-56
2022/07/01 08:18:23;;;;;;;;;0.00;0.00;;;;;18.85;54.00;101638.41;4986854;28;45603;-54
2022/07/01 08:20:52;;;;;;;;;1.25;0.00;;;;;18.88;54.37;101640.81;5002078;28;45293;-52
2022/07/01 08:23:19;;;;;;;;;3.00;0.00;;;;;18.97;53.54;101648.13;5002100;28;45349;-56
2022/07/01 08:25:45;;;;;;;;;0.00;0.00;;;;;19.03;53.64;101646.75;4992036;28;45329;-55
2022/07/01 08:28:10;;;;;;;;;2.25;1.00;;;;;19.01;53.77;101652.22;4982172;28;46430;-53
2022/07/01 08:30:36;;;;;;;;;1.25;0.00;;;;;19.04;53.47;101649.34;4982207;28;45631;-55
2022/07/01 08:33:01;;;;;;;;;1.50;0.00;;;;;19.05;53.20;101650.19;4982187;28;45394;-56
2022/07/01 08:35:27;;;;;;;;;0.75;0.00;;;;;19.08;52.74;101656.09;4982286;28;45488;-56
2022/07/01 08:37:52;;;;;;;;;1.50;0.00;;;;;19.12;52.33;101648.72;4982077;28;45183;-56
2022/07/01 08:40:18;;;;;;;;;1.50;0.75;;;;;19.13;51.99;101658.44;4980304;28;45229;-56
2022/07/01 08:42:43;;;;;;;;;2.00;0.00;;;;;19.14;51.73;101662.78;4982397;28;45275;-56
2022/07/01 08:45:09;;;;;;;;;0.75;0.75;;;;;19.22;52.07;101650.50;4982114;28;45538;-52
2022/07/01 08:47:52;;;;;;;;;2.75;0.75;;;;;19.29;51.70;101650.00;4981717;28;45335;-56
2022/07/01 08:50:18;;;;;;;;;1.50;1.00;;;;;19.38;51.92;101657.28;4981801;28;45215;-55
2022/07/01 08:52:43;;;;;;;;;1.25;1.00;;;;;19.46;51.15;101658.34;4982047;28;45286;-56
2022/07/01 08:55:09;;;;;;;;;1.00;1.00;;;;;19.50;51.49;101664.25;4982024;28;45367;-56
2022/07/01 08:57:34;;;;;;;;;1.25;1.25;;;;;19.53;50.85;101661.38;4982027;28;46099;-56
2022/07/01 09:00:07;;;;;;;;;0.50;0.00;;;;;19.55;51.33;101666.56;4981736;28;45330;-55
2022/07/01 09:02:59;;;;;;;;;0.00;0.00;;;;;19.56;51.05;101669.13;4981946;28;45791;-56
2022/07/01 09:05:26;;;;;;;;;0.75;0.00;;;;;19.61;50.30;101671.44;4981836;28;45262;-54
2022/07/01 09:08:04;;;;;;;;;0.00;0.00;;;;;19.68;50.29;101672.66;4981963;28;45433;-55
2022/07/01 09:10:34;;;;;;;;;2.00;1.00;;;;;19.73;50.27;101673.94;4981760;28;45488;-54
2022/07/01 09:13:07;;;;;;;;;0.00;0.00;;;;;19.75;50.13;101668.50;4981710;28;45363;-55
2022/07/01 09:15:35;;;;;;;;;0.75;0.75;;;;;19.79;50.42;101667.25;4972357;28;45333;-55
2022/07/01 09:18:11;;;;;;;;;0.00;0.00;;;;;19.80;50.12;101669.78;4987506;28;46262;-56
2022/07/01 09:20:50;;;;;;;;;2.00;1.00;;;;;19.88;50.08;101669.16;4991283;28;45210;-54
2022/07/01 09:23:17;;;;;;;;;1.00;1.00;;;;;19.89;49.54;101672.66;4963821;28;45366;-53
2022/07/01 09:25:47;;;;;;;;;3.00;0.50;;;;;19.87;49.52;101675.47;4983728;28;45458;-54
2022/07/01 09:28:21;;;;;;;;;0.00;0.00;;;;;19.89;49.32;101683.38;4981470;28;46391;-54
2022/07/01 09:30:51;;;;;;;;;1.25;1.25;;;;;19.88;49.18;101679.00;4980929;28;45311;-56
2022/07/01 09:33:20;;;;;;;;;1.25;1.00;;;;;19.85;49.71;101690.81;4964490;28;45413;-55
2022/07/01 09:35:49;;;;;;;;;3.50;0.00;;;;;19.79;49.65;101688.63;4981356;28;45609;-56
2022/07/01 09:38:17;;;;;;;;;1.25;1.00;;;;;19.72;49.09;101690.97;4981061;28;45518;-55
2022/07/01 09:40:53;;;;;;;;;0.50;0.50;;;;;19.83;49.54;101689.22;4981243;28;45345;-56
2022/07/01 09:43:23;;;;;;;;;1.00;1.00;;;;;19.97;49.54;101683.56;4981642;28;45326;-55
2022/07/01 09:45:58;;;;;;;;;1.00;0.00;;;;;20.10;49.10;101692.28;4981071;28;45365;-56
2022/07/01 09:48:41;;;;;;;;;0.00;0.00;;;;;20.13;49.12;101686.66;4981196;28;46051;-56
2022/07/01 09:51:09;;;;;;;;;2.00;1.00;;;;;20.12;48.93;101686.78;4981425;28;45228;-56
2022/07/01 09:53:35;;;;;;;;;0.75;0.00;;;;;20.11;48.81;101679.75;4981401;28;45265;-56
2022/07/01 09:56:01;;;;;;;;;2.00;2.00;;;;;20.08;48.95;101678.19;4981289;28;45262;-54
2022/07/01 09:58:26;;;;;;;;;6.75;3.75;;;;;20.05;48.80;101681.09;4980830;28;45337;-56
2022/07/01 10:00:53;;;;;;;;;0.00;0.00;;;;;19.99;48.67;101673.63;4980860;28;45343;-56
2022/07/01 10:03:20;;;;;;;;;1.00;0.00;;;;;20.04;49.11;101674.06;4980654;28;45265;-55
2022/07/01 10:06:14;;;;;;;;;0.00;0.00;;;;;20.11;48.61;101685.09;4970074;28;45665;-56
2022/07/01 10:08:54;;;;;;;;;0.25;0.25;;;;;20.13;48.50;101683.13;4979366;28;45373;-57
2022/07/01 10:11:56;;;;;;;;;3.00;0.00;;;;;20.28;48.90;101692.53;4978000;28;45902;-55
2022/07/01 10:14:22;;;;;;;;;1.25;1.25;;;;;20.49;48.74;101688.06;4996085;28;45396;-55
2022/07/01 10:16:48;;;;;;;;;1.00;0.00;;;;;20.65;49.01;101689.41;4978832;28;45591;-54
2022/07/01 10:19:20;;;;;;;;;1.25;0.25;;;;;20.65;48.59;101686.72;4993395;28;46578;-54
2022/07/01 10:21:46;;;;;;;;;1.00;0.00;;;;;20.61;48.83;101686.13;5001513;28;45441;-53
2022/07/01 10:24:17;;;;;;;;;1.25;0.00;;;;;20.57;48.59;101688.25;5000362;28;45656;-56
2022/07/01 10:26:43;;;;;;;;;0.00;0.00;;;;;20.61;48.18;101686.13;4993179;28;45549;-58
2022/07/01 10:29:31;;;;;;;;;0.25;0.25;;;;;20.59;48.06;101688.09;4995117;28;46429;-55
2022/07/01 10:32:03;;;;;;;;;1.00;0.00;;;;;20.72;47.91;101686.06;5001091;28;45530;-56
2022/07/01 10:34:37;;;;;;;;;2.75;2.00;;;;;20.88;47.84;101678.38;5000234;28;45730;-58
2022/07/01 10:37:08;;;;;;;;;2.50;0.75;;;;;20.96;47.42;101672.34;5001280;28;45536;-53
2022/07/01 10:40:00;;;;;;;;;4.75;0.25;;;;;20.87;48.12;101674.03;5000827;28;45499;-57
2022/07/01 10:42:36;;;;;;;;;9.00;8.00;;;;;20.94;47.87;101671.66;5000775;28;45420;-54
2022/07/01 10:45:06;;;;;;;;;12.50;8.00;;;;;21.08;47.50;101679.28;5000887;28;45648;-58
2022/07/01 10:47:32;;;;;;;;;3.50;2.50;;;;;21.23;47.25;101670.88;4999654;28;45896;-55
2022/07/01 10:50:18;;;;;;;;;2.25;0.50;;;;;21.41;47.05;101672.81;5001245;28;45505;-57
2022/07/01 10:53:04;;;;;;;;;2.00;2.00;;;;;21.53;46.81;101678.88;5000729;28;45377;-55
2022/07/01 10:55:40;;;;;;;;;1.00;1.00;;;;;21.63;46.39;101681.56;5000630;28;45416;-56
2022/07/01 10:58:07;;;;;;;;;0.50;0.25;;;;;21.59;46.35;101682.84;5001187;28;45354;-58
2022/07/01 11:00:35;;;;;;;;;2.00;0.50;;;;;21.60;46.07;101673.81;5000250;28;46065;-56
2022/07/01 11:03:11;;;;;;;;;3.00;0.25;;;;;21.70;46.26;101671.97;5000318;28;45707;-52
2022/07/01 11:05:37;;;;;;;;;0.00;0.00;;;;;21.67;46.28;101677.63;4999901;28;45487;-54
2022/07/01 11:08:06;;;;;;;;;2.50;0.00;;;;;21.61;46.04;101681.69;5000822;28;45618;-55
2022/07/01 11:10:31;;;;;;;;;0.50;0.50;;;;;21.54;45.83;101680.56;5000413;28;45582;-55
2022/07/01 11:12:57;;;;;;;;;2.25;0.50;;;;;21.49;45.67;101676.59;4999656;28;45732;-57
2022/07/01 11:15:23;;;;;;;;;1.25;0.00;;;;;21.55;45.56;101674.22;4992500;28;45394;-56
2022/07/01 11:17:49;;;;;;;;;1.50;0.00;;;;;21.52;45.56;101674.50;4992671;28;45642;-54
2022/07/01 11:20:15;;;;;;;;;1.25;1.25;;;;;21.57;45.35;101669.56;4992596;28;45760;-56
2022/07/01 11:22:41;;;;;;;;;1.75;1.75;;;;;21.80;45.25;101677.31;4979435;28;45475;-57
2022/07/01 11:25:09;;;;;;;;;0.25;0.25;;;;;22.01;45.09;101670.84;4984499;28;45494;-55
2022/07/01 11:27:37;;;;;;;;;0.00;0.00;;;;;22.20;44.76;101671.84;4985371;28;45476;-56
2022/07/01 11:30:08;;;;;;;;;0.00;0.00;;;;;22.38;44.58;101663.91;4999133;28;45713;-53
2022/07/01 11:32:41;;;;;;;;;1.75;0.00;;;;;22.50;44.26;101662.72;4998797;28;45527;-53
2022/07/01 11:40:56;;;;;;;;;0.00;0.00;;;;;22.49;43.23;101677.97;4999235;28;45825;-55
2022/07/01 11:43:27;;;;;;;;;0.00;0.00;;;;;22.44;43.09;101668.69;4998755;28;45767;-57